sensor_id;sensor_type;location;lat;lon;timestamp;pressure;altitude;pressure_sealevel;temperature
53667;BMP280;39568;51.026;5.468;2023-01-28T00:02:12;101930.53;;;3.36
53667;BMP280;39568;51.026;5.468;2023-01-28T00:04:39;101944.66;;;3.46
53667;BMP280;39568;51.026;5.468;2023-01-28T00:07:06;101941.00;;;3.40
53667;BMP280;39568;51.026;5.468;2023-01-28T00:09:33;101927.63;;;3.27
53667;BMP280;39568;51.026;5.468;2023-01-28T00:11:59;101932.28;;;3.20
53667;BMP280;39568;51.026;5.468;2023-01-28T00:14:26;101927.84;;;3.40
53667;BMP280;39568;51.026;5.468;2023-01-28T00:16:54;101930.53;;;3.36
53667;BMP280;39568;51.026;5.468;2023-01-28T00:19:22;101931.63;;;3.39
53667;BMP280;39568;51.026;5.468;2023-01-28T00:21:48;101919.94;;;3.40
53667;BMP280;39568;51.026;5.468;2023-01-28T00:24:15;101927.84;;;3.40
53667;BMP280;39568;51.026;5.468;2023-01-28T00:26:42;101927.16;;;3.36
53667;BMP280;39568;51.026;5.468;2023-01-28T00:29:08;101921.41;;;3.41
53667;BMP280;39568;51.026;5.468;2023-01-28T00:31:35;101919.19;;;3.39
53667;BMP280;39568;51.026;5.468;2023-01-28T00:34:02;101925.31;;;3.56
53667;BMP280;39568;51.026;5.468;2023-01-28T00:36:30;101927.84;;;3.63
53667;BMP280;39568;51.026;5.468;2023-01-28T00:38:58;101917.88;;;3.51
53667;BMP280;39568;51.026;5.468;2023-01-28T00:41:27;101927.22;;;3.56
53667;BMP280;39568;51.026;5.468;2023-01-28T00:43:54;101924.16;;;3.57
53667;BMP280;39568;51.026;5.468;2023-01-28T00:46:22;101916.72;;;3.52
53667;BMP280;39568;51.026;5.468;2023-01-28T00:48:49;101923.47;;;3.53
53667;BMP280;39568;51.026;5.468;2023-01-28T00:51:17;101921.94;;;3.56
53667;BMP280;39568;51.026;5.468;2023-01-28T00:53:46;101926.34;;;3.62
53667;BMP280;39568;51.026;5.468;2023-01-28T00:56:14;101920.75;;;3.37
53667;BMP280;39568;51.026;5.468;2023-01-28T00:58:42;101923.72;;;3.39
53667;BMP280;39568;51.026;5.468;2023-01-28T01:01:10;101924.28;;;3.50
53667;BMP280;39568;51.026;5.468;2023-01-28T01:03:37;101929.66;;;3.43
53667;BMP280;39568;51.026;5.468;2023-01-28T01:06:05;101931.94;;;3.41
53667;BMP280;39568;51.026;5.468;2023-01-28T01:08:32;101917.66;;;3.42
53667;BMP280;39568;51.026;5.468;2023-01-28T01:11:06;101921.88;;;3.36
53667;BMP280;39568;51.026;5.468;2023-01-28T01:13:33;101927.16;;;3.36
53667;BMP280;39568;51.026;5.468;2023-01-28T01:16:01;101933.09;;;3.40
53667;BMP280;39568;51.026;5.468;2023-01-28T01:18:28;101935.28;;;3.45
53667;BMP280;39568;51.026;5.468;2023-01-28T01:20:55;101937.19;;;3.41
53667;BMP280;39568;51.026;5.468;2023-01-28T01:23:24;101946.81;;;3.28
53667;BMP280;39568;51.026;5.468;2023-01-28T01:25:51;101947.06;;;3.10
53667;BMP280;39568;51.026;5.468;2023-01-28T01:28:20;101950.34;;;3.18
53667;BMP280;39568;51.026;5.468;2023-01-28T01:30:47;101957.63;;;3.07
53667;BMP280;39568;51.026;5.468;2023-01-28T01:33:15;101951.88;;;3.15
53667;BMP280;39568;51.026;5.468;2023-01-28T01:35:42;101958.50;;;3.23
53667;BMP280;39568;51.026;5.468;2023-01-28T01:38:08;101957.63;;;3.07
53667;BMP280;39568;51.026;5.468;2023-01-28T01:40:35;101957.28;;;3.05
53667;BMP280;39568;51.026;5.468;2023-01-28T01:43:13;101955.22;;;3.19
53667;BMP280;39568;51.026;5.468;2023-01-28T01:45:43;101954.19;;;3.10
53667;BMP280;39568;51.026;5.468;2023-01-28T01:48:14;101952.72;;;3.09
53667;BMP280;39568;51.026;5.468;2023-01-28T01:50:47;101951.31;;;3.01
53667;BMP280;39568;51.026;5.468;2023-01-28T01:53:16;101948.00;;;3.23
53667;BMP280;39568;51.026;5.468;2023-01-28T01:55:47;101939.31;;;3.00
53667;BMP280;39568;51.026;5.468;2023-01-28T01:58:17;101950.47;;;3.07
53667;BMP280;39568;51.026;5.468;2023-01-28T02:00:46;101943.63;;;2.86
53667;BMP280;39568;51.026;5.468;2023-01-28T02:03:14;101939.81;;;2.91
53667;BMP280;39568;51.026;5.468;2023-01-28T02:05:42;101945.47;;;2.89
53667;BMP280;39568;51.026;5.468;2023-01-28T02:08:09;101945.13;;;2.87
53667;BMP280;39568;51.026;5.468;2023-01-28T02:10:52;101937.63;;;2.86
53667;BMP280;39568;51.026;5.468;2023-01-28T02:13:23;101938.16;;;2.74
53667;BMP280;39568;51.026;5.468;2023-01-28T02:15:52;101949.28;;;2.85
53667;BMP280;39568;51.026;5.468;2023-01-28T02:18:20;101951.16;;;2.84
53667;BMP280;39568;51.026;5.468;2023-01-28T02:21:09;101951.06;;;2.91
53667;BMP280;39568;51.026;5.468;2023-01-28T02:23:49;101957.38;;;2.97
53667;BMP280;39568;51.026;5.468;2023-01-28T02:26:29;101951.91;;;2.85
53667;BMP280;39568;51.026;5.468;2023-01-28T02:29:05;101942.66;;;2.73
53667;BMP280;39568;51.026;5.468;2023-01-28T02:31:39;101947.25;;;2.66
53667;BMP280;39568;51.026;5.468;2023-01-28T02:34:13;101947.13;;;2.76
53667;BMP280;39568;51.026;5.468;2023-01-28T02:36:48;101953.97;;;2.67
53667;BMP280;39568;51.026;5.468;2023-01-28T02:39:19;101958.47;;;2.70
53667;BMP280;39568;51.026;5.468;2023-01-28T02:41:49;101960.75;;;2.68
53667;BMP280;39568;51.026;5.468;2023-01-28T02:44:19;101949.38;;;2.78
53667;BMP280;39568;51.026;5.468;2023-01-28T02:46:46;101962.00;;;2.90
53667;BMP280;39568;51.026;5.468;2023-01-28T02:49:39;101953.28;;;2.93
53667;BMP280;39568;51.026;5.468;2023-01-28T02:55:40;101952.59;;;2.62
53667;BMP280;39568;51.026;5.468;2023-01-28T02:58:15;101942.75;;;2.63
53667;BMP280;39568;51.026;5.468;2023-01-28T03:00:52;101942.34;;;2.68
53667;BMP280;39568;51.026;5.468;2023-01-28T03:03:25;101948.72;;;2.70
53667;BMP280;39568;51.026;5.468;2023-01-28T03:05:54;101943.41;;;2.74
53667;BMP280;39568;51.026;5.468;2023-01-28T03:08:37;101950.97;;;2.68
53667;BMP280;39568;51.026;5.468;2023-01-28T03:11:23;101960.59;;;2.82
53667;BMP280;39568;51.026;5.468;2023-01-28T03:14:07;101955.28;;;2.85
53667;BMP280;39568;51.026;5.468;2023-01-28T03:16:56;101957.88;;;2.59
53667;BMP280;39568;51.026;5.468;2023-01-28T03:19:42;101956.50;;;2.43
53667;BMP280;39568;51.026;5.468;2023-01-28T03:22:28;101951.72;;;2.38
53667;BMP280;39568;51.026;5.468;2023-01-28T03:25:14;101950.72;;;2.59
53667;BMP280;39568;51.026;5.468;2023-01-28T03:28:03;101965.84;;;2.48
53667;BMP280;39568;51.026;5.468;2023-01-28T03:30:55;101961.78;;;2.43
53667;BMP280;39568;51.026;5.468;2023-01-28T03:33:43;101963.78;;;2.66
53667;BMP280;39568;51.026;5.468;2023-01-28T03:36:28;101967.66;;;2.58
53667;BMP280;39568;51.026;5.468;2023-01-28T03:39:13;101970.44;;;2.74
53667;BMP280;39568;51.026;5.468;2023-01-28T03:41:39;101973.41;;;2.76
53667;BMP280;39568;51.026;5.468;2023-01-28T03:44:07;101977.28;;;2.65
53667;BMP280;39568;51.026;5.468;2023-01-28T03:46:51;101981.63;;;2.78
53667;BMP280;39568;51.026;5.468;2023-01-28T03:49:19;101973.13;;;2.67
53667;BMP280;39568;51.026;5.468;2023-01-28T03:51:45;101973.16;;;2.64
53667;BMP280;39568;51.026;5.468;2023-01-28T03:54:12;101972.59;;;2.49
53667;BMP280;39568;51.026;5.468;2023-01-28T03:56:39;101982.78;;;2.43
53667;BMP280;39568;51.026;5.468;2023-01-28T03:59:06;101979.06;;;2.41
53667;BMP280;39568;51.026;5.468;2023-01-28T04:01:33;101977.50;;;2.47
53667;BMP280;39568;51.026;5.468;2023-01-28T04:04:00;101979.06;;;2.41
53667;BMP280;39568;51.026;5.468;2023-01-28T04:06:28;101982.09;;;2.36
53667;BMP280;39568;51.026;5.468;2023-01-28T04:08:55;101980.53;;;2.45
53667;BMP280;39568;51.026;5.468;2023-01-28T04:11:24;101975.97;;;2.50
53667;BMP280;39568;51.026;5.468;2023-01-28T04:13:51;101978.03;;;2.65
53667;BMP280;39568;51.026;5.468;2023-01-28T04:16:18;101989.00;;;2.60
53667;BMP280;39568;51.026;5.468;2023-01-28T04:18:45;101981.94;;;2.54
53667;BMP280;39568;51.026;5.468;2023-01-28T04:21:12;101984.25;;;2.48
53667;BMP280;39568;51.026;5.468;2023-01-28T04:23:40;101987.25;;;2.50
53667;BMP280;39568;51.026;5.468;2023-01-28T04:26:07;101984.00;;;2.69
53667;BMP280;39568;51.026;5.468;2023-01-28T04:28:33;101990.00;;;2.70
53667;BMP280;39568;51.026;5.468;2023-01-28T04:31:00;101993.59;;;2.53
53667;BMP280;39568;51.026;5.468;2023-01-28T04:33:27;101987.28;;;2.47
53667;BMP280;39568;51.026;5.468;2023-01-28T04:35:53;101988.81;;;2.40
53667;BMP280;39568;51.026;5.468;2023-01-28T04:38:20;102000.03;;;2.44
53667;BMP280;39568;51.026;5.468;2023-01-28T04:40:52;102000.13;;;2.37
53667;BMP280;39568;51.026;5.468;2023-01-28T04:43:19;102002.03;;;2.33
53667;BMP280;39568;51.026;5.468;2023-01-28T04:45:46;102005.34;;;2.41
53667;BMP280;39568;51.026;5.468;2023-01-28T04:48:14;102002.00;;;2.37
53667;BMP280;39568;51.026;5.468;2023-01-28T04:50:41;101999.03;;;2.31
53667;BMP280;39568;51.026;5.468;2023-01-28T04:53:08;102004.25;;;2.38
53667;BMP280;39568;51.026;5.468;2023-01-28T04:55:35;102005.34;;;2.41
53667;BMP280;39568;51.026;5.468;2023-01-28T04:58:03;102002.72;;;2.41
53667;BMP280;39568;51.026;5.468;2023-01-28T05:00:30;102003.56;;;2.31
53667;BMP280;39568;51.026;5.468;2023-01-28T05:02:57;101999.13;;;2.24
53667;BMP280;39568;51.026;5.468;2023-01-28T05:05:24;101994.31;;;2.19
53667;BMP280;39568;51.026;5.468;2023-01-28T05:07:51;101992.00;;;2.25
53667;BMP280;39568;51.026;5.468;2023-01-28T05:10:18;101986.75;;;2.25
53667;BMP280;39568;51.026;5.468;2023-01-28T05:12:45;101997.88;;;2.36
53667;BMP280;39568;51.026;5.468;2023-01-28T05:15:14;101995.13;;;2.09
53667;BMP280;39568;51.026;5.468;2023-01-28T05:17:40;101998.09;;;2.15
53667;BMP280;39568;51.026;5.468;2023-01-28T05:20:09;101997.31;;;2.18
53667;BMP280;39568;51.026;5.468;2023-01-28T05:22:36;102002.41;;;2.32
53667;BMP280;39568;51.026;5.468;2023-01-28T05:25:04;102000.34;;;2.13
53667;BMP280;39568;51.026;5.468;2023-01-28T05:27:31;102004.06;;;2.19
53667;BMP280;39568;51.026;5.468;2023-01-28T05:29:58;102004.94;;;2.02
53667;BMP280;39568;51.026;5.468;2023-01-28T05:32:26;102008.66;;;2.08
53667;BMP280;39568;51.026;5.468;2023-01-28T05:34:53;102011.94;;;2.19
53667;BMP280;39568;51.026;5.468;2023-01-28T05:37:20;102010.56;;;2.04
53667;BMP280;39568;51.026;5.468;2023-01-28T05:39:46;102008.66;;;2.04
53667;BMP280;39568;51.026;5.468;2023-01-28T05:42:13;102015.06;;;2.03
53667;BMP280;39568;51.026;5.468;2023-01-28T05:44:41;102015.44;;;2.02
53667;BMP280;39568;51.026;5.468;2023-01-28T05:47:08;102022.53;;;2.05
53667;BMP280;39568;51.026;5.468;2023-01-28T05:49:36;102022.31;;;2.29
53667;BMP280;39568;51.026;5.468;2023-01-28T05:52:03;102017.22;;;2.12
53667;BMP280;39568;51.026;5.468;2023-01-28T05:54:29;102021.06;;;2.04
53667;BMP280;39568;51.026;5.468;2023-01-28T05:56:56;102031.22;;;1.98
53667;BMP280;39568;51.026;5.468;2023-01-28T05:59:23;102024.38;;;2.11
53667;BMP280;39568;51.026;5.468;2023-01-28T06:01:49;102028.97;;;1.96
53667;BMP280;39568;51.026;5.468;2023-01-28T06:04:16;102028.59;;;1.98
53667;BMP280;39568;51.026;5.468;2023-01-28T06:06:45;102025.53;;;2.07
53667;BMP280;39568;51.026;5.468;2023-01-28T06:09:12;102029.94;;;2.17
53667;BMP280;39568;51.026;5.468;2023-01-28T06:11:39;102021.97;;;2.27
53667;BMP280;39568;51.026;5.468;2023-01-28T06:14:05;102023.16;;;2.23
53667;BMP280;39568;51.026;5.468;2023-01-28T06:16:32;102019.44;;;2.17
53667;BMP280;39568;51.026;5.468;2023-01-28T06:18:59;102027.47;;;1.99
53667;BMP280;39568;51.026;5.468;2023-01-28T06:21:26;102028.63;;;1.94
53667;BMP280;39568;51.026;5.468;2023-01-28T06:23:54;102039.06;;;2.02
53667;BMP280;39568;51.026;5.468;2023-01-28T06:26:20;102031.53;;;2.07
53667;BMP280;39568;51.026;5.468;2023-01-28T06:28:47;102040.53;;;2.06
53667;BMP280;39568;51.026;5.468;2023-01-28T06:31:14;102037.69;;;1.86
53667;BMP280;39568;51.026;5.468;2023-01-28T06:33:40;102033.22;;;1.83
53667;BMP280;39568;51.026;5.468;2023-01-28T06:36:07;102040.50;;;2.10
53667;BMP280;39568;51.026;5.468;2023-01-28T06:38:34;102039.13;;;1.94
53667;BMP280;39568;51.026;5.468;2023-01-28T06:41:02;102036.22;;;1.85
53667;BMP280;39568;51.026;5.468;2023-01-28T06:43:29;102036.88;;;1.93
53667;BMP280;39568;51.026;5.468;2023-01-28T06:45:56;102038.75;;;1.92
53667;BMP280;39568;51.026;5.468;2023-01-28T06:48:24;102048.59;;;1.81
53667;BMP280;39568;51.026;5.468;2023-01-28T06:50:51;102063.28;;;1.75
53667;BMP280;39568;51.026;5.468;2023-01-28T06:53:18;102054.66;;;1.71
53667;BMP280;39568;51.026;5.468;2023-01-28T06:55:44;102059.59;;;1.62
53667;BMP280;39568;51.026;5.468;2023-01-28T06:58:13;102058.03;;;1.75
53667;BMP280;39568;51.026;5.468;2023-01-28T07:00:40;102058.44;;;1.67
53667;BMP280;39568;51.026;5.468;2023-01-28T07:03:06;102057.25;;;1.78
53667;BMP280;39568;51.026;5.468;2023-01-28T07:05:33;102042.31;;;1.72
53667;BMP280;39568;51.026;5.468;2023-01-28T07:08:00;102043.00;;;1.79
53667;BMP280;39568;51.026;5.468;2023-01-28T07:10:27;102048.22;;;1.83
53667;BMP280;39568;51.026;5.468;2023-01-28T07:12:53;102047.06;;;1.87
53667;BMP280;39568;51.026;5.468;2023-01-28T07:15:21;102053.75;;;1.95
53667;BMP280;39568;51.026;5.468;2023-01-28T07:17:48;102054.78;;;2.05
53667;BMP280;39568;51.026;5.468;2023-01-28T07:20:16;102051.59;;;1.83
53667;BMP280;39568;51.026;5.468;2023-01-28T07:22:43;102048.56;;;1.85
53667;BMP280;39568;51.026;5.468;2023-01-28T07:25:12;102047.41;;;1.89
53667;BMP280;39568;51.026;5.468;2023-01-28T07:27:43;102048.88;;;1.94
53667;BMP280;39568;51.026;5.468;2023-01-28T07:30:11;102036.50;;;1.94
53667;BMP280;39568;51.026;5.468;2023-01-28T07:32:39;102050.69;;;2.01
53667;BMP280;39568;51.026;5.468;2023-01-28T07:35:07;102051.81;;;2.03
53667;BMP280;39568;51.026;5.468;2023-01-28T07:37:34;102046.22;;;1.98
53667;BMP280;39568;51.026;5.468;2023-01-28T07:40:00;102048.06;;;2.01
53667;BMP280;39568;51.026;5.468;2023-01-28T07:42:27;102042.94;;;1.86
53667;BMP280;39568;51.026;5.468;2023-01-28T07:45:04;102047.81;;;1.84
53667;BMP280;39568;51.026;5.468;2023-01-28T07:47:31;102050.84;;;1.83
53667;BMP280;39568;51.026;5.468;2023-01-28T07:49:59;102058.38;;;1.77
53667;BMP280;39568;51.026;5.468;2023-01-28T07:52:26;102059.09;;;1.81
53667;BMP280;39568;51.026;5.468;2023-01-28T07:54:53;102056.84;;;1.83
53667;BMP280;39568;51.026;5.468;2023-01-28T07:57:19;102072.59;;;1.83
53667;BMP280;39568;51.026;5.468;2023-01-28T07:59:48;102066.66;;;1.72
53667;BMP280;39568;51.026;5.468;2023-01-28T08:02:15;102070.72;;;1.80
53667;BMP280;39568;51.026;5.468;2023-01-28T08:04:42;102080.91;;;1.71
53667;BMP280;39568;51.026;5.468;2023-01-28T08:07:11;102086.13;;;1.78
53667;BMP280;39568;51.026;5.468;2023-01-28T08:09:37;102089.81;;;1.84
53667;BMP280;39568;51.026;5.468;2023-01-28T08:12:04;102090.16;;;1.86
53667;BMP280;39568;51.026;5.468;2023-01-28T08:14:31;102086.03;;;1.89
53667;BMP280;39568;51.026;5.468;2023-01-28T08:16:58;102078.81;;;2.04
53667;BMP280;39568;51.026;5.468;2023-01-28T08:19:24;102085.97;;;2.00
53667;BMP280;39568;51.026;5.468;2023-01-28T08:21:51;102074.34;;;1.97
53667;BMP280;39568;51.026;5.468;2023-01-28T08:24:19;102087.44;;;2.08
53667;BMP280;39568;51.026;5.468;2023-01-28T08:26:47;102092.31;;;2.06
53667;BMP280;39568;51.026;5.468;2023-01-28T08:29:14;102094.03;;;2.26
53667;BMP280;39568;51.026;5.468;2023-01-28T08:31:40;102091.44;;;2.23
53667;BMP280;39568;51.026;5.468;2023-01-28T08:34:07;102110.63;;;2.13
53667;BMP280;39568;51.026;5.468;2023-01-28T08:36:34;102104.59;;;2.23
53667;BMP280;39568;51.026;5.468;2023-01-28T08:39:00;102104.16;;;2.28
53667;BMP280;39568;51.026;5.468;2023-01-28T08:41:29;102118.19;;;2.07
53667;BMP280;39568;51.026;5.468;2023-01-28T08:43:56;102099.25;;;2.30
53667;BMP280;39568;51.026;5.468;2023-01-28T08:46:23;102114.59;;;2.31
53667;BMP280;39568;51.026;5.468;2023-01-28T08:48:50;102124.31;;;2.41
53667;BMP280;39568;51.026;5.468;2023-01-28T08:51:17;102125.34;;;2.51
53667;BMP280;39568;51.026;5.468;2023-01-28T08:53:43;102130.59;;;2.55
53667;BMP280;39568;51.026;5.468;2023-01-28T08:56:10;102135.84;;;2.51
53667;BMP280;39568;51.026;5.468;2023-01-28T08:58:38;102145.66;;;2.43
53667;BMP280;39568;51.026;5.468;2023-01-28T09:01:05;102143.59;;;2.21
53667;BMP280;39568;51.026;5.468;2023-01-28T09:03:32;102148.75;;;2.35
53667;BMP280;39568;51.026;5.468;2023-01-28T09:06:00;102151.13;;;2.19
53667;BMP280;39568;51.026;5.468;2023-01-28T09:08:27;102153.69;;;2.26
53667;BMP280;39568;51.026;5.468;2023-01-28T09:10:54;102161.44;;;2.40
53667;BMP280;39568;51.026;5.468;2023-01-28T09:13:22;102160.84;;;2.25
53667;BMP280;39568;51.026;5.468;2023-01-28T09:15:50;102159.81;;;2.05
53667;BMP280;39568;51.026;5.468;2023-01-28T09:18:17;102163.47;;;2.25
53667;BMP280;39568;51.026;5.468;2023-01-28T09:20:44;102176.88;;;2.38
53667;BMP280;39568;51.026;5.468;2023-01-28T09:23:11;102178.03;;;2.30
53667;BMP280;39568;51.026;5.468;2023-01-28T09:25:38;102181.66;;;2.50
53667;BMP280;39568;51.026;5.468;2023-01-28T09:28:05;102168.75;;;2.63
53667;BMP280;39568;51.026;5.468;2023-01-28T09:30:32;102164.56;;;2.72
53667;BMP280;39568;51.026;5.468;2023-01-28T09:33:00;102173.00;;;2.97
53667;BMP280;39568;51.026;5.468;2023-01-28T09:35:27;102166.16;;;3.04
53667;BMP280;39568;51.026;5.468;2023-01-28T09:37:56;102183.13;;;2.95
53667;BMP280;39568;51.026;5.468;2023-01-28T09:40:30;102179.91;;;2.81
53667;BMP280;39568;51.026;5.468;2023-01-28T09:43:18;102172.84;;;2.74
53667;BMP280;39568;51.026;5.468;2023-01-28T09:45:52;102174.50;;;2.95
53667;BMP280;39568;51.026;5.468;2023-01-28T09:48:26;102172.34;;;2.90
53667;BMP280;39568;51.026;5.468;2023-01-28T09:50:55;102186.41;;;3.07
53667;BMP280;39568;51.026;5.468;2023-01-28T09:53:24;102181.94;;;3.04
53667;BMP280;39568;51.026;5.468;2023-01-28T09:55:54;102174.34;;;3.13
53667;BMP280;39568;51.026;5.468;2023-01-28T09:58:21;102180.84;;;3.35
53667;BMP280;39568;51.026;5.468;2023-01-28T10:00:53;102180.97;;;3.24
53667;BMP280;39568;51.026;5.468;2023-01-28T10:03:42;102189.84;;;3.37
53667;BMP280;39568;51.026;5.468;2023-01-28T10:06:19;102181.66;;;3.32
53667;BMP280;39568;51.026;5.468;2023-01-28T10:09:14;102179.94;;;3.48
53667;BMP280;39568;51.026;5.468;2023-01-28T10:11:57;102180.63;;;3.56
53667;BMP280;39568;51.026;5.468;2023-01-28T10:14:36;102164.13;;;3.52
53667;BMP280;39568;51.026;5.468;2023-01-28T10:17:10;102175.19;;;3.70
53667;BMP280;39568;51.026;5.468;2023-01-28T10:19:42;102172.09;;;3.75
53667;BMP280;39568;51.026;5.468;2023-01-28T10:22:14;102174.72;;;3.75
53667;BMP280;39568;51.026;5.468;2023-01-28T10:24:44;102183.66;;;4.08
53667;BMP280;39568;51.026;5.468;2023-01-28T10:27:16;102178.53;;;3.97
53667;BMP280;39568;51.026;5.468;2023-01-28T10:29:46;102181.28;;;3.64
53667;BMP280;39568;51.026;5.468;2023-01-28T10:32:20;102186.44;;;3.97
53667;BMP280;39568;51.026;5.468;2023-01-28T10:34:50;102196.28;;;4.20
53667;BMP280;39568;51.026;5.468;2023-01-28T10:37:18;102182.09;;;3.57
53667;BMP280;39568;51.026;5.468;2023-01-28T10:39:45;102175.88;;;3.44
53667;BMP280;39568;51.026;5.468;2023-01-28T10:42:16;102182.06;;;3.27
53667;BMP280;39568;51.026;5.468;2023-01-28T10:44:46;102182.53;;;3.18
53667;BMP280;39568;51.026;5.468;2023-01-28T10:47:15;102189.66;;;3.55
53667;BMP280;39568;51.026;5.468;2023-01-28T10:49:51;102192.09;;;3.99
53667;BMP280;39568;51.026;5.468;2023-01-28T10:52:18;102187.16;;;3.41
53667;BMP280;39568;51.026;5.468;2023-01-28T10:54:45;102189.91;;;3.30
53667;BMP280;39568;51.026;5.468;2023-01-28T10:57:15;102190.25;;;3.36
53667;BMP280;39568;51.026;5.468;2023-01-28T10:59:43;102192.84;;;3.70
53667;BMP280;39568;51.026;5.468;2023-01-28T11:02:25;102191.72;;;3.71
53667;BMP280;39568;51.026;5.468;2023-01-28T11:05:01;102188.00;;;3.65
53667;BMP280;39568;51.026;5.468;2023-01-28T11:07:28;102193.25;;;3.95
53667;BMP280;39568;51.026;5.468;2023-01-28T11:09:55;102204.31;;;3.56
53667;BMP280;39568;51.026;5.468;2023-01-28T11:12:23;102200.25;;;3.48
53667;BMP280;39568;51.026;5.468;2023-01-28T11:14:54;102210.09;;;3.44
53667;BMP280;39568;51.026;5.468;2023-01-28T11:17:22;102201.34;;;3.20
53667;BMP280;39568;51.026;5.468;2023-01-28T11:19:50;102200.13;;;3.25
53667;BMP280;39568;51.026;5.468;2023-01-28T11:22:23;102195.19;;;3.30
53667;BMP280;39568;51.026;5.468;2023-01-28T11:24:53;102184.63;;;3.34
53667;BMP280;39568;51.026;5.468;2023-01-28T11:27:24;102184.63;;;3.68
53667;BMP280;39568;51.026;5.468;2023-01-28T11:29:54;102178.94;;;3.69
53667;BMP280;39568;51.026;5.468;2023-01-28T11:32:24;102174.97;;;3.84
53667;BMP280;39568;51.026;5.468;2023-01-28T11:34:52;102174.69;;;4.06
53667;BMP280;39568;51.026;5.468;2023-01-28T11:37:24;102174.47;;;3.66
53667;BMP280;39568;51.026;5.468;2023-01-28T11:40:00;102177.75;;;4.00
53667;BMP280;39568;51.026;5.468;2023-01-28T11:42:27;102173.94;;;3.78
53667;BMP280;39568;51.026;5.468;2023-01-28T11:44:55;102172.78;;;3.49
53667;BMP280;39568;51.026;5.468;2023-01-28T11:47:39;102165.84;;;3.32
53667;BMP280;39568;51.026;5.468;2023-01-28T11:50:24;102173.25;;;3.07
53667;BMP280;39568;51.026;5.468;2023-01-28T11:55:54;102183.00;;;3.10
53667;BMP280;39568;51.026;5.468;2023-01-28T11:58:33;102185.50;;;2.83
53667;BMP280;39568;51.026;5.468;2023-01-28T12:01:09;102179.59;;;3.13
53667;BMP280;39568;51.026;5.468;2023-01-28T12:03:46;102165.75;;;3.42
53667;BMP280;39568;51.026;5.468;2023-01-28T12:09:14;102155.66;;;3.68
53667;BMP280;39568;51.026;5.468;2023-01-28T12:11:49;102162.41;;;3.95
53667;BMP280;39568;51.026;5.468;2023-01-28T12:14:58;102158.13;;;4.05
53667;BMP280;39568;51.026;5.468;2023-01-28T12:17:35;102155.56;;;4.25
53667;BMP280;39568;51.026;5.468;2023-01-28T12:20:12;102163.09;;;4.26
53667;BMP280;39568;51.026;5.468;2023-01-28T12:25:43;102136.03;;;4.22
53667;BMP280;39568;51.026;5.468;2023-01-28T12:28:19;102126.00;;;4.37
53667;BMP280;39568;51.026;5.468;2023-01-28T12:31:06;102106.03;;;4.59
53667;BMP280;39568;51.026;5.468;2023-01-28T12:33:54;102103.97;;;4.90
53667;BMP280;39568;51.026;5.468;2023-01-28T12:36:32;102112.00;;;5.02
53667;BMP280;39568;51.026;5.468;2023-01-28T12:39:08;102132.13;;;5.32
53667;BMP280;39568;51.026;5.468;2023-01-28T12:41:41;102119.06;;;4.70
53667;BMP280;39568;51.026;5.468;2023-01-28T12:44:10;102104.19;;;4.56
53667;BMP280;39568;51.026;5.468;2023-01-28T12:46:41;102098.34;;;4.68
53667;BMP280;39568;51.026;5.468;2023-01-28T12:49:13;102081.03;;;4.67
53667;BMP280;39568;51.026;5.468;2023-01-28T12:51:51;102073.28;;;5.16
53667;BMP280;39568;51.026;5.468;2023-01-28T12:54:25;102073.31;;;5.80
53667;BMP280;39568;51.026;5.468;2023-01-28T12:56:55;102074.84;;;6.26
53667;BMP280;39568;51.026;5.468;2023-01-28T12:59:27;102062.13;;;6.21
53667;BMP280;39568;51.026;5.468;2023-01-28T13:02:02;102068.84;;;6.09
53667;BMP280;39568;51.026;5.468;2023-01-28T13:04:36;102056.44;;;6.23
53667;BMP280;39568;51.026;5.468;2023-01-28T13:07:06;102068.50;;;6.07
53667;BMP280;39568;51.026;5.468;2023-01-28T13:09:36;102072.34;;;5.90
53667;BMP280;39568;51.026;5.468;2023-01-28T13:12:05;102070.38;;;5.78
53667;BMP280;39568;51.026;5.468;2023-01-28T13:14:32;102074.69;;;6.01
53667;BMP280;39568;51.026;5.468;2023-01-28T13:17:09;102084.28;;;6.81
53667;BMP280;39568;51.026;5.468;2023-01-28T13:19:38;102093.28;;;8.06
53667;BMP280;39568;51.026;5.468;2023-01-28T13:22:10;102103.78;;;8.93
53667;BMP280;39568;51.026;5.468;2023-01-28T13:24:37;102108.47;;;9.29
53667;BMP280;39568;51.026;5.468;2023-01-28T13:27:12;102111.00;;;9.23
53667;BMP280;39568;51.026;5.468;2023-01-28T13:29:47;102131.81;;;8.63
53667;BMP280;39568;51.026;5.468;2023-01-28T13:32:32;102125.09;;;8.06
53667;BMP280;39568;51.026;5.468;2023-01-28T13:35:01;102127.63;;;7.12
53667;BMP280;39568;51.026;5.468;2023-01-28T13:37:32;102127.38;;;7.07
53667;BMP280;39568;51.026;5.468;2023-01-28T13:40:05;102124.78;;;6.65
53667;BMP280;39568;51.026;5.468;2023-01-28T13:42:36;102133.25;;;6.73
53667;BMP280;39568;51.026;5.468;2023-01-28T13:45:22;102117.25;;;6.64
53667;BMP280;39568;51.026;5.468;2023-01-28T13:47:52;102119.22;;;6.47
53667;BMP280;39568;51.026;5.468;2023-01-28T13:50:22;102110.38;;;6.54
53667;BMP280;39568;51.026;5.468;2023-01-28T13:52:54;102122.25;;;6.17
53667;BMP280;39568;51.026;5.468;2023-01-28T13:55:24;102121.84;;;6.02
53667;BMP280;39568;51.026;5.468;2023-01-28T13:58:24;102128.56;;;6.07
53667;BMP280;39568;51.026;5.468;2023-01-28T14:01:17;102135.56;;;6.13
53667;BMP280;39568;51.026;5.468;2023-01-28T14:04:02;102126.78;;;6.17
53667;BMP280;39568;51.026;5.468;2023-01-28T14:07:02;102136.28;;;6.14
53667;BMP280;39568;51.026;5.468;2023-01-28T14:09:47;102116.50;;;5.90
53667;BMP280;39568;51.026;5.468;2023-01-28T14:12:41;102121.28;;;5.63
53667;BMP280;39568;51.026;5.468;2023-01-28T14:18:05;102112.50;;;4.54
53667;BMP280;39568;51.026;5.468;2023-01-28T14:20:43;102111.69;;;4.38
53667;BMP280;39568;51.026;5.468;2023-01-28T14:23:15;102101.72;;;4.49
53667;BMP280;39568;51.026;5.468;2023-01-28T14:25:53;102112.59;;;4.71
53667;BMP280;39568;51.026;5.468;2023-01-28T14:28:34;102098.81;;;5.02
53667;BMP280;39568;51.026;5.468;2023-01-28T14:31:06;102094.25;;;5.23
53667;BMP280;39568;51.026;5.468;2023-01-28T14:33:35;102083.69;;;5.23
53667;BMP280;39568;51.026;5.468;2023-01-28T14:36:03;102092.66;;;5.25
53667;BMP280;39568;51.026;5.468;2023-01-28T14:38:35;102091.28;;;5.37
53667;BMP280;39568;51.026;5.468;2023-01-28T14:41:04;102077.50;;;5.29
53667;BMP280;39568;51.026;5.468;2023-01-28T14:43:31;102081.22;;;5.32
53667;BMP280;39568;51.026;5.468;2023-01-28T14:46:09;102058.63;;;5.31